TAF FDMS 191000Z 1912/1918 14007KT CAVOK=